Terminal Aerodrome Forecast
Issued by NWS

Home | Current Version | Previous Version | Text Only | Print | Product List | Glossary On
Versions: 1 2 3 4 5 6 7 8 9 10 11 12 13 14 15
000
FTUS42 TJSJ 110500
TAFJMZ
TAF
TJMZ 110539Z 1106/1206 06005KT P6SM SCT040
     FM111430 09008KT P6SM VCSH SCT040
     FM112300 07006KT P6SM FEW040
      AMD NOT SKED TIL 111200=

USA.gov is the U.S. government's official web portal to all federal, state and local government web resources and services.